Time;durP1;ratioP1;P1;durP2;ratioP2;P2;SDS_P1;SDS_P2;PMS_P1;PMS_P2;Temp;Humidity;BMP_temperature;BMP_pressure;BME280_temperature;BME280_humidity;BME280_pressure;Samples;Min_cycle;Max_cycle;Signal;HPM_P1;HPM_P2
2021/01/28 00:01:16;;;;;;;78.30;28.48;;;;;;;7.35;77.72;99716.47;5012861;28;20054;-61
2021/01/28 00:03:43;;;;;;;71.63;27.90;;;;;;;7.41;77.42;99712.47;4993471;28;20069;-61
2021/01/28 00:06:10;;;;;;;64.45;26.95;;;;;;;7.46;77.54;99704.88;4993183;28;20054;-61
2021/01/28 00:08:38;;;;;;;66.07;27.52;;;;;;;7.46;77.27;99715.13;4993297;28;20058;-61
2021/01/28 00:11:04;;;;;;;74.45;26.45;;;;;;;7.45;77.65;99708.75;4992757;28;20054;-61
2021/01/28 00:13:34;;;;;;;67.32;27.40;;;;;;;7.38;78.11;99702.03;4992814;28;20062;-61
2021/01/28 00:16:04;;;;;;;;;;;;;;;7.41;77.53;99701.38;4994404;28;20062;-61
2021/01/28 00:18:30;;;;;;;67.30;26.05;;;;;;;7.43;78.25;99699.97;5011275;28;20401;-62
2021/01/28 00:20:57;;;;;;;65.65;24.90;;;;;;;7.44;77.33;99698.00;5016062;28;20063;-61
2021/01/28 00:23:24;;;;;;;67.75;27.30;;;;;;;7.43;77.41;99688.03;5015425;28;20363;-61
2021/01/28 00:25:51;;;;;;;65.55;25.80;;;;;;;7.43;77.71;99688.03;4997360;28;20439;-60
2021/01/28 00:28:21;;;;;;;62.05;26.98;;;;;;;7.44;77.24;99684.16;4996547;28;20061;-62
2021/01/28 00:30:52;;;;;;;62.30;25.08;;;;;;;7.40;76.97;99677.59;4996155;28;20057;-62
2021/01/28 00:33:22;;;;;;;59.35;23.58;;;;;;;7.36;77.76;99668.25;5009866;28;20399;-62
2021/01/28 00:35:50;;;;;;;60.03;24.40;;;;;;;7.30;77.94;99667.56;5015679;28;20073;-62
2021/01/28 00:38:20;;;;;;;61.05;25.65;;;;;;;7.28;77.87;99676.16;5015907;28;20050;-62
2021/01/28 00:40:47;;;;;;;63.63;25.80;;;;;;;7.27;78.19;99682.03;5016607;28;20061;-62
2021/01/28 00:43:14;;;;;;;62.55;26.73;;;;;;;7.27;78.12;99674.53;5011749;28;20050;-62
2021/01/28 00:45:42;;;;;;;67.97;25.88;;;;;;;7.32;78.00;99688.25;4996302;28;20071;-62
2021/01/28 00:48:13;;;;;;;62.95;27.55;;;;;;;7.39;77.73;99678.72;5008945;28;20522;-62
2021/01/28 00:50:41;;;;;;;58.30;23.17;;;;;;;7.40;77.83;99666.50;5014952;28;20060;-62
2021/01/28 00:53:11;;;;;;;65.78;26.75;;;;;;;7.41;77.85;99677.28;5015282;28;20066;-62
2021/01/28 00:55:38;;;;;;;66.88;26.63;;;;;;;7.38;77.91;99671.53;5015053;28;20050;-62
2021/01/28 00:58:05;;;;;;;60.78;25.30;;;;;;;7.35;77.32;99666.63;5015550;28;20049;-62
2021/01/28 01:00:37;;;;;;;64.38;24.58;;;;;;;7.35;78.03;99670.22;5015577;28;20491;-62
2021/01/28 01:03:04;;;;;;;66.13;25.83;;;;;;;7.27;78.07;99665.44;5000446;28;20046;-62
2021/01/28 01:05:38;;;;;;;68.32;27.10;;;;;;;7.26;78.07;99664.59;4995869;28;20050;-62
2021/01/28 01:08:07;;;;;;;82.20;28.92;;;;;;;7.16;78.76;99659.31;4996442;28;20383;-62
2021/01/28 01:10:38;;;;;;;64.28;25.30;;;;;;;7.15;78.28;99660.41;4996525;28;20056;-61
2021/01/28 01:13:05;;;;;;;69.47;27.75;;;;;;;7.17;78.53;99654.56;5011259;28;20050;-61
2021/01/28 01:15:32;;;;;;;65.78;27.85;;;;;;;7.17;78.22;99654.56;5015657;28;20544;-61
2021/01/28 01:18:02;;;;;;;73.93;27.50;;;;;;;7.24;78.52;99643.88;5015654;28;20057;-62
2021/01/28 01:20:30;;;;;;;;;;;;;;;7.24;78.15;99639.16;5015500;28;20054;-62
2021/01/28 01:22:58;;;;;;;61.03;26.13;;;;;;;7.26;77.97;99638.84;5013719;28;19965;-62
2021/01/28 01:25:26;;;;;;;55.83;23.67;;;;;;;7.28;77.99;99631.84;5011649;28;20046;-62
2021/01/28 01:27:53;;;;;;;55.20;24.67;;;;;;;7.29;78.24;99627.97;5013642;28;20058;-62
2021/01/28 01:30:25;;;;;;;62.38;23.27;;;;;;;7.32;77.55;99624.56;4995039;28;20065;-61
2021/01/28 01:32:52;;;;;;;59.92;24.33;;;;;;;7.37;77.58;99612.56;4995597;28;20057;-61
2021/01/28 01:35:22;;;;;;;55.70;23.02;;;;;;;7.33;77.24;99622.63;4995185;28;20415;-62
2021/01/28 01:37:50;;;;;;;52.63;20.63;;;;;;;7.28;77.66;99612.47;4996133;28;20050;-62
2021/01/28 01:40:22;;;;;;;61.78;24.75;;;;;;;7.24;77.79;99611.44;4998504;28;20054;-62
2021/01/28 01:42:50;;;;;;;55.38;24.38;;;;;;;7.29;77.87;99611.34;4994949;28;20051;-62
2021/01/28 01:45:19;;;;;;;53.22;25.00;;;;;;;7.30;78.43;99601.88;4995596;28;20479;-62
2021/01/28 01:47:50;;;;;;;62.67;25.85;;;;;;;7.35;77.78;99600.13;5005328;28;20061;-62
2021/01/28 01:50:32;;;;;;;55.42;23.55;;;;;;;7.27;77.34;99591.44;5014416;28;20061;-62
2021/01/28 01:53:01;;;;;;;53.17;23.67;;;;;;;7.28;77.66;99587.53;5014740;28;20060;-60
2021/01/28 01:55:32;;;;;;;56.03;23.63;;;;;;;7.30;77.02;99590.81;5014566;28;20498;-62
2021/01/28 01:58:03;;;;;;;57.65;23.15;;;;;;;7.26;76.95;99581.50;5014118;28;20084;-61
2021/01/28 02:00:33;;;;;;;53.22;22.73;;;;;;;7.25;77.57;99581.81;5015774;28;20054;-62
2021/01/28 02:03:07;;;;;;;58.33;25.30;;;;;;;7.20;76.77;99579.16;5006728;28;20050;-62
2021/01/28 02:05:36;;;;;;;52.13;24.20;;;;;;;7.17;76.92;99577.03;5014225;28;20049;-62
2021/01/28 02:08:05;;;;;;;46.53;19.95;;;;;;;7.21;77.06;99569.72;5014294;28;20061;-61
2021/01/28 02:10:33;;;;;;;46.33;20.42;;;;;;;7.20;76.55;99562.53;5010896;28;20392;-62
2021/01/28 02:13:02;;;;;;;54.50;22.52;;;;;;;7.15;76.49;99569.03;4994395;28;20053;-62
2021/01/28 02:15:29;;;;;;;45.95;20.65;;;;;;;7.11;77.38;99562.47;4994462;28;20050;-62
2021/01/28 02:17:58;;;;;;;43.63;17.88;;;;;;;7.07;77.41;99555.94;4994154;28;20539;-62
2021/01/28 02:20:41;;;;;;;39.42;18.50;;;;;;;7.04;77.14;99553.81;4994133;28;20071;-62
2021/01/28 02:23:15;;;;;;;42.40;17.60;;;;;;;7.05;77.32;99555.44;4994403;28;20062;-61
2021/01/28 02:25:49;;;;;;;40.42;18.70;;;;;;;6.99;77.58;99556.69;4995333;28;20081;-61
2021/01/28 02:28:17;;;;;;;36.15;17.92;;;;;;;7.02;77.64;99542.22;5009889;28;20391;-61
2021/01/28 02:30:46;;;;;;;35.67;16.95;;;;;;;7.02;77.12;99534.72;5013887;28;20053;-62
2021/01/28 02:33:33;;;;;;;38.88;18.92;;;;;;;6.97;77.02;99537.63;5013615;28;20057;-62
2021/01/28 02:36:01;;;;;;;41.67;18.55;;;;;;;6.84;76.85;99536.53;5013327;28;20443;-62
2021/01/28 02:38:28;;;;;;;42.60;19.00;;;;;;;6.83;78.11;99537.66;5008332;28;20157;-62
2021/01/28 02:40:56;;;;;;;41.38;18.30;;;;;;;6.82;77.71;99540.75;4993047;28;20061;-61
2021/01/28 02:43:23;;;;;;;39.15;17.35;;;;;;;6.88;78.14;99523.69;4975704;28;20058;-62
2021/01/28 02:46:01;;;;;;;40.97;18.63;;;;;;;6.88;77.23;99520.13;4974771;28;20047;-61
2021/01/28 02:48:28;;;;;;;40.78;17.50;;;;;;;6.87;77.38;99518.50;4975078;28;20066;-61
2021/01/28 02:50:55;;;;;;;38.72;18.23;;;;;;;6.83;78.18;99518.28;4975068;28;20081;-61
2021/01/28 02:53:23;;;;;;;35.13;17.80;;;;;;;6.90;77.37;99515.09;4974799;28;20062;-61
2021/01/28 02:55:53;;;;;;;37.45;16.20;;;;;;;6.90;77.01;99512.31;4974849;28;20054;-59
2021/01/28 02:58:20;;;;;;;44.03;17.33;;;;;;;6.88;77.56;99511.81;4974065;28;20057;-62
2021/01/28 03:00:47;;;;;;;35.47;16.90;;;;;;;6.90;77.90;99506.78;4974064;28;20058;-61
2021/01/28 03:03:14;;;;;;;39.95;18.33;;;;;;;6.87;77.39;99493.59;4974026;28;20061;-61
2021/01/28 03:05:41;;;;;;;36.67;16.02;;;;;;;6.91;77.60;99492.63;4981842;28;20046;-61
2021/01/28 03:08:08;;;;;;;42.40;19.42;;;;;;;6.90;77.60;99479.91;4993556;28;20184;-61
2021/01/28 03:10:36;;;;;;;40.65;18.65;;;;;;;6.94;77.27;99479.28;4993559;28;20053;-60
2021/01/28 03:13:03;;;;;;;39.60;17.65;;;;;;;6.97;77.49;99471.19;4990724;28;20407;-61
2021/01/28 03:15:29;;;;;;;42.60;19.15;;;;;;;6.99;77.44;99457.00;4974713;28;20050;-61
2021/01/28 03:18:00;;;;;;;41.40;19.48;;;;;;;6.99;76.83;99460.63;4973959;28;20437;-61
2021/01/28 03:20:27;;;;;;;46.30;21.42;;;;;;;7.00;76.82;99462.25;4974015;28;20077;-61
2021/01/28 03:22:56;;;;;;;39.10;20.35;;;;;;;7.04;76.64;99454.13;4986085;28;20447;-61
2021/01/28 03:25:23;;;;;;;45.50;20.77;;;;;;;6.99;77.36;99448.69;4975646;28;20060;-61
2021/01/28 03:27:51;;;;;;;40.28;17.35;;;;;;;7.03;76.63;99444.97;4973911;28;20058;-61
2021/01/28 03:30:22;;;;;;;33.47;16.83;;;;;;;7.13;76.82;99434.78;4973900;28;20477;-61
2021/01/28 03:32:49;;;;;;;35.70;17.42;;;;;;;6.97;77.03;99435.19;4973651;28;20058;-61
2021/01/28 03:35:17;;;;;;;32.20;16.05;;;;;;;7.10;76.20;99431.53;4973898;28;20047;-61
2021/01/28 03:37:44;;;;;;;28.35;13.95;;;;;;;7.04;76.53;99421.72;4974041;28;20066;-61
2021/01/28 03:40:12;;;;;;;29.23;15.27;;;;;;;7.14;75.85;99412.34;5007468;28;20061;-61
2021/01/28 03:42:39;;;;;;;30.85;14.93;;;;;;;7.12;75.13;99420.13;5013443;28;20058;-58
2021/01/28 03:45:09;;;;;;;25.98;13.05;;;;;;;6.96;74.97;99410.59;4973673;28;20428;-61
2021/01/28 03:47:36;;;;;;;24.38;13.38;;;;;;;6.96;75.80;99405.88;4973763;28;20059;-61
2021/01/28 03:50:06;;;;;;;25.85;12.77;;;;;;;6.94;75.62;99410.09;4973941;28;20047;-60
2021/01/28 03:52:33;;;;;;;24.08;13.18;;;;;;;6.87;75.63;99421.63;4976283;28;20046;-61
2021/01/28 03:55:00;;;;;;;23.95;12.15;;;;;;;6.85;75.32;99429.41;4996484;28;20057;-61
2021/01/28 03:57:27;;;;;;;25.17;11.88;;;;;;;6.87;75.66;99429.91;4997326;28;20066;-60
2021/01/28 03:59:54;;;;;;;24.30;12.38;;;;;;;6.88;75.22;99437.88;4997594;28;20074;-61
2021/01/28 04:02:22;;;;;;;22.92;11.70;;;;;;;6.86;75.67;99431.84;4996927;28;20109;-61
2021/01/28 04:04:49;;;;;;;16.52;8.93;;;;;;;6.88;75.65;99429.56;4997110;28;20061;-61
2021/01/28 04:07:16;;;;;;;25.60;11.80;;;;;;;6.91;75.89;99415.13;4996980;28;20065;-61
2021/01/28 04:09:44;;;;;;;22.45;10.77;;;;;;;6.97;75.77;99404.75;5006093;28;20073;-61
2021/01/28 04:12:11;;;;;;;21.65;11.45;;;;;;;7.03;75.03;99402.63;5016243;28;20373;-61
2021/01/28 04:14:38;;;;;;;23.27;12.15;;;;;;;7.07;75.03;99401.69;5016658;28;20057;-61
2021/01/28 04:17:04;;;;;;;17.15;10.20;;;;;;;7.10;75.21;99409.38;5016302;28;20057;-61
2021/01/28 04:19:32;;;;;;;18.58;10.32;;;;;;;7.14;74.66;99405.94;5016370;28;20057;-61
2021/01/28 04:21:59;;;;;;;19.25;11.20;;;;;;;7.19;74.78;99405.84;5017039;28;20129;-61
2021/01/28 04:24:26;;;;;;;17.70;10.10;;;;;;;7.15;74.09;99389.03;5011610;28;20506;-61
2021/01/28 04:26:53;;;;;;;18.45;10.27;;;;;;;7.11;74.20;99390.78;5015983;28;20065;-61
2021/01/28 04:29:20;;;;;;;18.20;10.77;;;;;;;7.11;74.46;99382.50;5016631;28;20053;-61
2021/01/28 04:31:48;;;;;;;21.95;12.75;;;;;;;7.09;74.52;99385.56;5015635;28;20490;-61
2021/01/28 04:34:15;;;;;;;22.55;11.13;;;;;;;7.09;75.07;99384.75;5015918;28;20475;-61
2021/01/28 04:36:43;;;;;;;21.65;12.05;;;;;;;7.11;75.53;99388.03;5015942;28;20058;-61
2021/01/28 04:39:09;;;;;;;19.25;11.63;;;;;;;7.16;75.06;99370.44;4997716;28;20069;-61
2021/01/28 04:41:36;;;;;;;18.20;9.70;;;;;;;7.13;73.88;99382.19;4977070;28;20062;-62
2021/01/28 04:44:05;;;;;;;21.75;11.43;;;;;;;7.03;74.68;99377.72;4977038;28;20050;-60
2021/01/28 04:46:36;;;;;;;22.47;11.00;;;;;;;7.00;74.48;99373.66;4977621;28;20054;-61
2021/01/28 04:49:07;;;;;;;23.10;11.65;;;;;;;6.94;74.68;99363.84;4976940;28;20481;-61
2021/01/28 04:51:35;;;;;;;23.13;12.50;;;;;;;6.94;74.80;99355.53;4977200;28;20150;-60
2021/01/28 04:54:09;;;;;;;21.63;11.57;;;;;;;6.94;75.42;99344.47;4977333;28;20055;-60
2021/01/28 04:56:36;;;;;;;19.23;11.88;;;;;;;6.94;75.47;99343.66;4976843;28;20476;-61
2021/01/28 04:59:07;;;;;;;18.80;11.60;;;;;;;6.93;75.21;99342.00;4978661;28;20059;-61
2021/01/28 05:01:37;;;;;;;22.80;12.10;;;;;;;7.00;75.53;99336.84;4976642;28;20059;-60
2021/01/28 05:04:08;;;;;;;24.05;12.93;;;;;;;7.09;75.07;99329.38;4975346;28;20053;-61
2021/01/28 05:06:35;;;;;;;23.25;13.38;;;;;;;7.18;75.01;99323.88;4976553;28;20059;-61
2021/01/28 05:09:03;;;;;;;25.17;13.30;;;;;;;7.26;75.00;99323.91;4976753;28;20062;-61
2021/01/28 05:11:32;;;;;;;19.90;11.93;;;;;;;7.34;75.08;99310.41;4976001;28;20065;-61
2021/01/28 05:14:15;;;;;;;28.42;14.25;;;;;;;7.39;74.74;99297.25;4976265;28;20652;-61
2021/01/28 05:16:45;;;;;;;23.00;13.00;;;;;;;7.47;74.62;99290.06;4976931;28;20054;-61
2021/01/28 05:19:31;;;;;;;21.27;12.57;;;;;;;7.50;73.96;99293.03;4976528;28;20078;-61
2021/01/28 05:22:06;;;;;;;24.73;13.18;;;;;;;7.54;73.64;99284.88;4976273;28;20062;-61
2021/01/28 05:24:48;;;;;;;18.73;11.32;;;;;;;7.58;74.38;99280.34;4984997;28;20050;-61
2021/01/28 05:27:19;;;;;;;22.65;12.93;;;;;;;7.64;73.53;99269.88;4995645;28;20050;-61
2021/01/28 05:29:47;;;;;;;18.98;10.15;;;;;;;7.57;73.40;99273.13;4995139;28;20054;-61
2021/01/28 05:32:34;;;;;;;19.30;9.60;;;;;;;7.62;74.01;99261.06;4995129;28;20073;-61
2021/01/28 05:35:17;;;;;;;20.13;10.40;;;;;;;7.53;73.31;99255.53;4995589;28;20059;-61
2021/01/28 05:37:44;;;;;;;22.17;10.80;;;;;;;7.51;73.86;99242.00;4995639;28;20054;-61
2021/01/28 05:40:18;;;;;;;25.50;13.57;;;;;;;7.48;74.16;99241.84;4995579;28;20468;-61
2021/01/28 05:42:45;;;;;;;18.58;10.50;;;;;;;7.45;74.11;99232.19;4995338;28;20372;-61
2021/01/28 05:45:26;;;;;;;19.30;10.80;;;;;;;7.44;73.86;99218.69;5014665;28;20045;-61
2021/01/28 05:47:54;;;;;;;18.50;10.38;;;;;;;7.37;74.16;99219.19;5014277;28;20498;-61
2021/01/28 05:50:26;;;;;;;21.65;11.07;;;;;;;7.38;73.50;99211.69;5014999;28;20090;-61
2021/01/28 05:53:08;;;;;;;16.98;8.90;;;;;;;7.27;73.54;99195.38;5013147;28;20388;-61
2021/01/28 05:55:36;;;;;;;13.30;6.65;;;;;;;7.24;73.85;99197.97;4995426;28;20065;-60
2021/01/28 05:58:06;;;;;;;16.33;7.90;;;;;;;7.21;73.62;99202.19;4995027;28;20411;-61
2021/01/28 06:00:40;;;;;;;15.40;7.93;;;;;;;7.15;73.93;99188.84;4995139;28;20365;-61
2021/01/28 06:03:45;;;;;;;16.30;7.90;;;;;;;7.16;74.82;99185.75;4994450;28;20069;-61
2021/01/28 06:06:37;;;;;;;17.52;9.07;;;;;;;7.15;74.98;99181.34;4992809;28;20376;-61
2021/01/28 06:09:23;;;;;;;15.15;7.40;;;;;;;7.03;74.68;99168.13;4996705;28;20049;-61
2021/01/28 06:12:26;;;;;;;16.25;8.45;;;;;;;7.09;75.43;99163.25;5003914;28;20050;-60
2021/01/28 06:15:13;;;;;;;15.48;8.32;;;;;;;7.10;75.22;99162.13;5007282;28;20439;-61
2021/01/28 06:18:08;;;;;;;17.10;8.77;;;;;;;7.16;75.32;99147.00;5011804;28;20046;-61
2021/01/28 06:21:06;;;;;;;14.38;8.20;;;;;;;7.25;75.02;99141.44;4962462;28;20054;-61
2021/01/28 06:24:00;;;;;;;14.18;7.53;;;;;;;7.30;74.98;99139.31;4995391;28;20054;-61
2021/01/28 06:26:32;;;;;;;11.77;7.65;;;;;;;7.36;74.96;99139.97;5012513;28;20479;-61
2021/01/28 06:29:18;;;;;;;12.98;8.32;;;;;;;7.42;74.58;99126.78;5002244;28;20141;-61
2021/01/28 06:32:02;;;;;;;12.63;7.00;;;;;;;7.46;74.45;99123.03;5014184;28;20459;-60
2021/01/28 06:34:51;;;;;;;13.23;7.45;;;;;;;7.50;73.74;99112.94;5010693;28;20050;-61
2021/01/28 06:37:31;;;;;;;13.93;7.93;;;;;;;7.53;73.36;99111.44;5007148;28;20127;-61
2021/01/28 06:39:58;;;;;;;14.57;8.40;;;;;;;7.58;74.32;99105.75;4992096;28;20054;-61
2021/01/28 06:42:30;;;;;;;15.40;9.13;;;;;;;7.62;73.27;99097.59;4993897;28;20258;-62
2021/01/28 06:45:05;;;;;;;14.70;10.63;;;;;;;7.63;73.56;99088.94;4988644;28;20057;-61
2021/01/28 06:47:37;;;;;;;17.20;10.52;;;;;;;7.64;73.61;99081.44;4993683;28;20053;-62
2021/01/28 06:50:12;;;;;;;14.63;9.27;;;;;;;7.62;73.04;99089.28;4998112;28;20057;-61
2021/01/28 06:52:58;;;;;;;16.17;9.20;;;;;;;7.64;73.26;99084.22;4994131;28;20061;-61
2021/01/28 06:55:33;;;;;;;14.57;8.82;;;;;;;7.62;73.32;99081.78;5000541;28;20053;-62
2021/01/28 06:58:12;;;;;;;12.95;8.80;;;;;;;7.62;73.06;99070.72;4994793;28;20058;-61
2021/01/28 07:00:47;;;;;;;15.98;9.40;;;;;;;7.62;73.56;99073.47;5004068;28;20061;-60
2021/01/28 07:03:22;;;;;;;14.48;8.60;;;;;;;7.64;73.40;99062.88;4993584;28;20061;-62
2021/01/28 07:05:57;;;;;;;17.52;9.05;;;;;;;7.63;73.54;99050.16;4998628;28;20058;-62
2021/01/28 07:08:51;;;;;;;14.18;8.60;;;;;;;7.64;73.30;99068.41;5013574;28;20054;-62
2021/01/28 07:11:29;;;;;;;13.07;8.77;;;;;;;7.66;73.44;99068.88;5013325;28;20054;-62
2021/01/28 07:13:56;;;;;;;16.50;9.50;;;;;;;7.63;73.80;99052.91;4997252;28;20077;-62
2021/01/28 07:16:32;;;;;;;15.75;9.93;;;;;;;7.65;73.77;99044.28;4993024;28;20054;-62
2021/01/28 07:19:06;;;;;;;16.00;9.02;;;;;;;7.65;73.76;99036.78;4993210;28;20483;-62
2021/01/28 07:21:36;;;;;;;15.48;8.85;;;;;;;7.67;73.57;99026.19;4994455;28;20050;-62
2021/01/28 07:24:06;;;;;;;11.73;7.95;;;;;;;7.67;73.35;99028.94;4997533;28;20058;-62
2021/01/28 07:26:50;;;;;;;14.90;8.32;;;;;;;7.67;73.56;99023.41;4992676;28;20059;-62
2021/01/28 07:29:40;;;;;;;14.70;8.50;;;;;;;7.64;73.44;99023.25;4991386;28;20057;-62
2021/01/28 07:32:10;;;;;;;15.07;8.48;;;;;;;7.60;73.25;99005.66;4993197;28;20062;-62
2021/01/28 07:34:38;;;;;;;14.88;8.52;;;;;;;7.58;73.20;99010.72;4993202;28;20050;-62
2021/01/28 07:37:27;;;;;;;14.13;8.20;;;;;;;7.60;73.38;99016.72;4994417;28;20054;-62
2021/01/28 07:39:54;;;;;;;12.88;8.27;;;;;;;7.57;73.52;99007.13;4993094;28;20522;-62
2021/01/28 07:42:30;;;;;;;15.70;8.93;;;;;;;7.59;73.18;99002.06;4993427;28;20054;-62
2021/01/28 07:44:58;;;;;;;13.38;8.52;;;;;;;7.60;73.65;98994.56;4993093;28;20058;-61
2021/01/28 07:47:50;;;;;;;13.55;7.90;;;;;;;7.66;73.61;98982.97;4993044;28;20055;-62
2021/01/28 07:50:34;;;;;;;14.15;9.05;;;;;;;7.67;73.40;98981.84;4999516;28;20058;-64
2021/01/28 07:53:36;;;;;;;7.57;5.20;;;;;;;7.62;72.01;98975.66;5008304;28;20056;-64
2021/01/28 07:56:03;;;;;;;13.65;8.27;;;;;;;7.63;72.73;98963.44;4991464;28;20051;-64
2021/01/28 07:58:33;;;;;;;12.00;7.68;;;;;;;7.59;72.73;98954.97;4993214;28;20400;-65
2021/01/28 08:01:07;;;;;;;11.73;6.40;;;;;;;7.63;73.56;98958.72;4987071;28;20077;-64
2021/01/28 08:03:45;;;;;;;10.57;7.30;;;;;;;7.64;72.79;98963.13;4990037;28;20495;-64
2021/01/28 08:06:15;;;;;;;10.48;6.15;;;;;;;7.61;72.90;98955.44;4991704;28;20054;-64
2021/01/28 08:08:42;;;;;;;7.82;5.05;;;;;;;7.67;72.37;98933.91;4994252;28;20050;-64
2021/01/28 08:11:15;;;;;;;5.28;3.65;;;;;;;7.63;72.00;98933.75;4981245;28;20388;-64
2021/01/28 08:13:42;;;;;;;6.05;3.42;;;;;;;7.62;71.34;98932.16;4992179;28;20069;-64
2021/01/28 08:16:15;;;;;;;4.80;3.20;;;;;;;7.59;71.01;98921.72;4990793;28;20057;-64
2021/01/28 08:19:03;;;;;;;5.18;2.88;;;;;;;7.56;71.98;98927.94;4991099;28;20054;-64
2021/01/28 08:21:33;;;;;;;3.75;2.83;;;;;;;7.50;71.68;98919.00;4992287;28;20388;-64
2021/01/28 08:24:19;;;;;;;3.55;2.33;;;;;;;7.48;71.34;98920.47;4990513;28;20046;-64
2021/01/28 08:26:46;;;;;;;3.25;2.22;;;;;;;7.41;71.97;98909.91;4979202;28;20050;-64
2021/01/28 08:29:15;;;;;;;3.33;2.60;;;;;;;7.41;71.48;98909.91;4991672;28;20054;-64
2021/01/28 08:31:44;;;;;;;3.77;2.63;;;;;;;7.38;72.21;98898.69;4991296;28;20053;-64
2021/01/28 08:34:18;;;;;;;4.87;3.13;;;;;;;7.40;72.02;98897.19;4987177;28;20053;-64
2021/01/28 08:36:49;;;;;;;5.72;3.47;;;;;;;7.37;72.54;98878.47;4990942;28;20050;-64
2021/01/28 08:39:20;;;;;;;4.13;3.20;;;;;;;7.39;72.56;98884.50;4994964;28;20069;-64
2021/01/28 08:41:58;;;;;;;5.00;3.25;;;;;;;7.38;72.02;98880.09;4994538;28;20069;-64
2021/01/28 08:44:25;;;;;;;5.85;3.40;;;;;;;7.37;72.75;98878.47;4996726;28;20054;-64
2021/01/28 08:47:06;;;;;;;4.45;3.30;;;;;;;7.36;72.31;98874.06;5006995;28;20490;-64
2021/01/28 08:49:36;;;;;;;4.18;3.00;;;;;;;7.36;72.09;98867.72;4994597;28;20050;-64
2021/01/28 08:52:06;;;;;;;4.95;3.47;;;;;;;7.34;73.05;98859.75;4993685;28;20403;-64
2021/01/28 08:54:36;;;;;;;5.00;3.10;;;;;;;7.37;72.23;98849.94;4992644;28;20069;-64
2021/01/28 08:57:03;;;;;;;3.70;2.93;;;;;;;7.38;73.22;98851.59;4990115;28;20049;-64
2021/01/28 08:59:33;;;;;;;4.30;2.85;;;;;;;7.38;73.10;98855.16;4993294;28;20497;-64
2021/01/28 09:02:02;;;;;;;4.63;3.50;;;;;;;7.38;73.28;98854.34;4997985;28;20061;-64
2021/01/28 09:04:32;;;;;;;5.13;3.10;;;;;;;7.41;72.99;98845.38;4991907;28;20061;-64
2021/01/28 09:07:02;;;;;;;4.32;2.80;;;;;;;7.47;73.47;98835.72;4991120;28;20061;-64
2021/01/28 09:09:30;;;;;;;;;;;;;;;7.47;73.74;98836.53;4990120;28;20427;-64
2021/01/28 09:12:17;;;;;;;4.32;2.42;;;;;;;7.49;73.86;98830.66;4993028;28;19930;-64
2021/01/28 09:14:44;;;;;;;3.67;2.67;;;;;;;7.50;73.28;98821.22;4999913;28;20054;-64
2021/01/28 09:17:23;;;;;;;4.22;2.88;;;;;;;7.49;72.39;98819.59;4993035;28;20061;-64
2021/01/28 09:19:55;;;;;;;3.83;2.40;;;;;;;7.47;73.40;98825.44;4993695;28;20059;-64
2021/01/28 09:22:32;;;;;;;3.58;2.50;;;;;;;7.49;72.81;98823.16;4988826;28;20058;-64
2021/01/28 09:25:00;;;;;;;4.25;1.90;;;;;;;7.50;72.72;98818.44;4998765;28;20440;-64
2021/01/28 09:27:36;;;;;;;3.22;2.13;;;;;;;7.50;72.72;98821.22;4995995;28;20054;-64
2021/01/28 09:30:19;;;;;;;3.45;2.47;;;;;;;7.51;73.71;98817.28;4990937;28;20054;-64
2021/01/28 09:32:47;;;;;;;4.80;2.88;;;;;;;7.50;73.65;98813.72;4993553;28;20062;-64
2021/01/28 09:35:21;;;;;;;4.65;2.90;;;;;;;7.54;73.27;98805.56;4993029;28;20054;-64
2021/01/28 09:38:02;;;;;;;4.38;3.05;;;;;;;7.58;73.73;98803.75;4992253;28;20046;-64
2021/01/28 09:40:33;;;;;;;4.85;3.00;;;;;;;7.60;72.67;98800.59;4992556;28;20050;-64
2021/01/28 09:43:23;;;;;;;5.22;3.38;;;;;;;7.60;72.96;98792.28;4994040;28;20407;-64
2021/01/28 09:46:10;;;;;;;5.22;3.20;;;;;;;7.62;72.92;98795.53;4988659;28;20511;-64
2021/01/28 09:48:38;;;;;;;5.38;3.17;;;;;;;7.62;72.75;98798.31;4993097;28;20050;-64
2021/01/28 09:51:05;;;;;;;5.53;2.97;;;;;;;7.59;72.53;98788.72;4993059;28;20054;-64
2021/01/28 09:53:33;;;;;;;5.03;3.20;;;;;;;7.63;72.39;98786.09;4989668;28;20119;-64
2021/01/28 09:56:00;;;;;;;6.65;3.88;;;;;;;7.64;72.88;98780.22;4993505;28;20496;-63
2021/01/28 09:58:27;;;;;;;7.15;5.00;;;;;;;7.70;72.42;98787.16;4998895;28;20061;-64
2021/01/28 10:00:54;;;;;;;6.68;5.05;;;;;;;7.73;72.51;98780.97;4992903;28;20054;-64
2021/01/28 10:03:21;;;;;;;6.88;4.82;;;;;;;7.76;72.69;98784.22;4993753;28;20054;-64
2021/01/28 10:05:48;;;;;;;6.47;4.63;;;;;;;7.77;72.09;98774.72;4993043;28;20439;-64
2021/01/28 10:08:16;;;;;;;5.28;3.78;;;;;;;7.84;71.85;98777.78;4990498;28;20050;-64
2021/01/28 10:10:46;;;;;;;7.90;4.88;;;;;;;7.82;72.57;98769.00;4992095;28;20062;-64
2021/01/28 10:13:17;;;;;;;6.25;4.18;;;;;;;7.84;72.46;98761.16;4990972;28;20069;-64
2021/01/28 10:15:44;;;;;;;6.70;5.07;;;;;;;7.90;72.48;98759.81;4991775;28;20054;-64
2021/01/28 10:18:11;;;;;;;9.80;5.05;;;;;;;7.92;72.52;98760.28;4992650;28;20050;-64
2021/01/28 10:20:40;;;;;;;6.82;4.60;;;;;;;7.94;71.95;98758.00;4991993;28;20050;-64
2021/01/28 10:23:08;;;;;;;6.93;5.35;;;;;;;7.94;71.57;98758.00;4988954;28;20058;-64
2021/01/28 10:25:35;;;;;;;7.07;5.32;;;;;;;7.98;72.14;98745.06;4988790;28;20050;-64
2021/01/28 10:28:05;;;;;;;7.13;5.32;;;;;;;8.02;71.41;98747.94;4998951;28;20046;-64
2021/01/28 10:30:32;;;;;;;8.57;5.55;;;;;;;8.05;71.57;98745.31;5010746;28;20057;-64
2021/01/28 10:33:00;;;;;;;7.50;5.90;;;;;;;8.05;71.83;98734.22;5005103;28;20541;-64
2021/01/28 10:35:29;;;;;;;9.05;5.88;;;;;;;8.10;71.26;98731.22;4991796;28;20050;-63
2021/01/28 10:37:56;;;;;;;10.43;6.93;;;;;;;8.13;71.19;98730.56;4992948;28;20047;-64
2021/01/28 10:40:24;;;;;;;10.63;7.55;;;;;;;8.14;71.61;98726.63;4991394;28;20054;-63
2021/01/28 10:42:56;;;;;;;11.73;7.80;;;;;;;8.18;71.72;98721.22;4992618;28;20073;-63
2021/01/28 10:45:28;;;;;;;7.47;5.68;;;;;;;8.19;71.25;98722.03;5005356;28;20058;-63
2021/01/28 10:47:55;;;;;;;9.07;6.25;;;;;;;8.17;71.05;98722.38;4992078;28;20425;-63
2021/01/28 10:50:22;;;;;;;7.28;5.70;;;;;;;8.19;71.23;98711.75;4991626;28;20058;-63
2021/01/28 10:52:51;;;;;;;9.05;5.78;;;;;;;8.20;71.60;98712.56;4990633;28;20046;-63
2021/01/28 10:55:22;;;;;;;5.85;4.68;;;;;;;8.23;71.03;98707.16;4993087;28;20057;-63
2021/01/28 10:57:49;;;;;;;7.30;5.28;;;;;;;8.25;70.98;98713.16;4991213;28;20054;-63
2021/01/28 11:00:18;;;;;;;7.85;5.03;;;;;;;8.27;70.83;98704.47;4992908;28;20511;-63
2021/01/28 11:02:49;;;;;;;6.57;4.43;;;;;;;8.28;71.21;98698.59;4992265;28;20057;-63
2021/01/28 11:05:19;;;;;;;9.27;7.70;;;;;;;8.30;70.31;98693.53;4991540;28;20054;-64
2021/01/28 11:07:46;;;;;;;4.85;4.15;;;;;;;8.33;70.67;98690.03;4994889;28;20054;-64
2021/01/28 11:10:14;;;;;;;5.05;3.80;;;;;;;8.34;70.59;98682.56;4991859;28;20054;-64
2021/01/28 11:12:44;;;;;;;7.63;3.92;;;;;;;8.37;70.78;98679.09;4989683;28;20077;-64
2021/01/28 11:15:12;;;;;;;5.72;4.15;;;;;;;8.38;70.38;98674.34;4993754;28;20062;-64
2021/01/28 11:17:38;;;;;;;6.03;3.83;;;;;;;8.37;70.46;98668.00;4990741;28;20046;-64
2021/01/28 11:20:12;;;;;;;5.35;4.00;;;;;;;8.37;71.37;98667.19;4981165;28;20062;-64
2021/01/28 11:22:39;;;;;;;5.18;3.85;;;;;;;8.37;71.09;98667.19;4989249;28;20150;-64
2021/01/28 11:25:09;;;;;;;5.28;3.60;;;;;;;8.38;70.88;98664.06;4993179;28;20046;-64
2021/01/28 11:27:35;;;;;;;;;;;;;;;8.40;71.72;98660.94;4988029;28;20046;-64
2021/01/28 11:30:03;;;;;;;6.78;3.65;;;;;;;8.38;70.91;98657.69;4993243;28;20268;-64
2021/01/28 11:32:32;;;;;;;4.00;3.60;;;;;;;8.36;71.25;98655.28;4993143;28;20087;-64
2021/01/28 11:34:59;;;;;;;7.03;4.15;;;;;;;8.32;71.14;98654.34;4993670;28;20415;-64
2021/01/28 11:37:29;;;;;;;5.80;4.30;;;;;;;8.35;71.66;98653.66;4993488;28;20050;-64
2021/01/28 11:39:56;;;;;;;5.68;4.88;;;;;;;8.34;71.27;98652.84;4993021;28;20054;-64
2021/01/28 11:42:23;;;;;;;4.40;3.70;;;;;;;8.34;71.69;98658.41;4992908;28;20184;-64
2021/01/28 11:44:50;;;;;;;5.85;3.85;;;;;;;8.36;71.03;98646.97;4993011;28;20054;-66
2021/01/28 11:47:17;;;;;;;5.95;3.90;;;;;;;8.33;71.07;98642.88;4993319;28;20049;-64
2021/01/28 11:49:44;;;;;;;6.22;5.63;;;;;;;8.35;71.40;98645.31;4992953;28;20412;-64
2021/01/28 11:52:11;;;;;;;6.35;4.55;;;;;;;8.33;71.44;98639.31;4992665;28;20054;-64
2021/01/28 11:54:38;;;;;;;4.93;4.40;;;;;;;8.34;71.05;98638.19;4996404;28;20484;-64